Historyczne dane pomiarowe

Dodano dane terminowe – wersja testowa.

Dane z okresu 1951-2019

Wersja bazy: 1.34 [2019-03-16, lista zmian], aktualizacja planowana na 2019-04-15

Dane meteo z obszaru Polski uzyskane na podstawie danych udostępnionych przez Instytut Meteorologii i Gospodarki Wodnej – Państwowy Instytut Badawczy.

 

Wybierz Datę:    

       

TemperaturaWilgotnośćWiatrCiśnienieOpadyŚniegCzas trwania zjawisk
 Stacja t tx tn tng RH VA  wxwx mslp ppp RRR   cm mm wxwxwxwxwxwxwx
1966-10-11 14.1 24.4 8.1- 85.0- 0.0 0.0---- 0.0------------
1966-10-12 14.2 22.6 8.4- 87.3- 7.0 0.0---- 2.0------------
1966-10-13 16.0 21.7 12.7- 86.5- 7.3 0.3---- 16.1------------
1966-10-14 11.0 16.8 10.1- 93.0- 8.0 3.3---- 0.2------------
1966-10-15 12.4 19.7 5.1- 83.8- 3.3 0.3---- 0.0------------
1966-10-16 16.6 23.8 9.5- 62.3- 2.3 1.3---- 0.0------------
1966-10-17 13.5 22.5 8.9- 80.5- 1.3 0.7---- 0.0------------
1966-10-18 13.6 18.5 7.9- 85.5- 6.0 0.7---- 0.0------------
1966-10-19 12.5 22.1 8.9- 84.3- 1.3 0.3---- 0.0------------
1966-10-20 12.4 20.4 7.7- 81.0- 1.3 1.0---- 0.0------------
1966-10-21 12.3 19.8 6.7- 78.5- 4.7 0.7---- 0.0------------
1966-10-22 9.5 13.9 7.2- 77.5- 5.7 1.0---- 0.0------------
1966-10-23 11.2 14.9 3.4- 73.8- 5.7 3.3---- 0.0------------
1966-10-24 14.9 19.3 12.9- 65.0- 4.3 4.0---- 0.0------------
1966-10-25 13.6 19.3 10.5- 86.0- 3.3 0.7---- 14.5------------
1966-10-26 12.3 14.6 11.6- 94.8- 7.3 0.3---- 4.5------------
1966-10-27 13.1 17.9 10.9- 80.3- 5.0 0.7---- 0.0------------
1966-10-28 5.9 12.0 4.3- 89.5- 8.0 2.0---- 0.9------------
1966-10-29 2.2 4.6 1.5- 92.5- 8.0 0.7---- 1.9------------
1966-10-30 0.0 1.9 -0.5- 95.5- 8.0 0.7---- 2.1------------
1966-10-31 -0.8 0.1 -0.9- 94.0- 8.0 1.7---- 1.1------------
1966-11-01 1.1 3.7 -1.4- 87.8- 7.0 0.3---- 0.0------------
1966-11-02 2.2 4.3 0.6- 88.8- 7.3 0.7---- 0.0------------
1966-11-03 6.4 10.4 -0.2- 74.3- 6.0 0.7---- 0.0------------
1966-11-04 14.3 17.2 7.1- 45.3- 3.7 10.0---- 0.0------------
1966-11-05 12.8 16.5 9.9- 54.3- 4.0 3.0---- 0.0------------
1966-11-06 10.2 20.0 2.8- 77.5- 4.7 0.3---- 0.0------------
1966-11-07 10.3 19.2 4.4- 63.3- 1.3 0.7---- 0.0------------
1966-11-08 6.7 17.8 0.8- 87.0- 3.0 0.3---- 0.0------------
1966-11-09 9.0 18.8 1.4- 55.5- 1.3 0.0---- 0.0------------
169.9 ms

 

Źródłem pochodzenia danych jest Instytut Meteorologii i Gospodarki Wodnej – Państwowy Instytut Badawczy. Dane Instytutu Meteorologii i Gospodarki Wodnej – Państwowego Instytutu Badawczego zostały przetworzone.

Dane źródłowe można odnaleźć na stronie https://dane.imgw.pl